Time;durP1;ratioP1;P1;durP2;ratioP2;P2;SDS_P1;SDS_P2;PMS_P1;PMS_P2;Temp;Humidity;BMP_temperature;BMP_pressure;BME280_temperature;BME280_humidity;BME280_pressure;Samples;Min_cycle;Max_cycle;Signal;HPM_P1;HPM_P2
2021/12/11 00:01:18;;;;;;;16.47;8.30;;;5.00;82.40;;;;;;5046986;28;20068;-75
2021/12/11 00:03:49;;;;;;;14.50;6.25;;;5.00;82.50;;;;;;5046963;28;20037;-75
2021/12/11 00:06:22;;;;;;;9.77;5.28;;;5.00;82.70;;;;;;5044887;28;20552;-75
2021/12/11 00:08:52;;;;;;;14.98;6.82;;;5.00;82.90;;;;;;5036215;28;20436;-75
2021/12/11 00:11:25;;;;;;;13.57;7.32;;;5.00;82.90;;;;;;5045818;28;20033;-75
2021/12/11 00:13:59;;;;;;;14.63;7.40;;;5.00;82.90;;;;;;5041702;28;20021;-75
2021/12/11 00:16:28;;;;;;;16.63;8.32;;;5.00;82.80;;;;;;5052876;28;20461;-75
2021/12/11 00:18:57;;;;;;;15.15;7.55;;;5.00;82.70;;;;;;5045957;28;20481;-75
2021/12/11 00:21:25;;;;;;;12.65;7.10;;;5.00;82.70;;;;;;5034264;28;20030;-75
2021/12/11 00:24:09;;;;;;;96.53;34.80;;;5.00;82.50;;;;;;5043292;28;20036;-74
2021/12/11 00:26:36;;;;;;;;;;;5.00;82.40;;;;;;5049318;28;20552;-75
2021/12/11 00:29:03;;;;;;;9.05;5.38;;;5.00;82.50;;;;;;5034102;28;19917;-75
2021/12/11 00:31:31;;;;;;;11.52;5.22;;;4.90;82.90;;;;;;5039363;28;20079;-75
2021/12/11 00:33:57;;;;;;;9.93;6.13;;;4.90;82.90;;;;;;5041152;28;20037;-75
2021/12/11 00:36:32;;;;;;;13.82;5.85;;;4.80;83.10;;;;;;5053245;28;20033;-75
2021/12/11 00:39:13;;;;;;;14.07;6.45;;;4.80;83.50;;;;;;5039821;28;20095;-74
2021/12/11 00:41:40;;;;;;;14.65;7.20;;;4.80;83.60;;;;;;5054091;28;20044;-75
2021/12/11 00:44:07;;;;;;;10.98;6.38;;;4.80;83.60;;;;;;5053806;28;20106;-75
2021/12/11 00:46:34;;;;;;;65.45;7.60;;;4.80;83.50;;;;;;5053207;28;20029;-74
2021/12/11 00:49:14;;;;;;;55.28;9.15;;;4.80;83.40;;;;;;5040101;28;20068;-74
2021/12/11 00:51:40;;;;;;;69.60;9.70;;;4.80;83.40;;;;;;5040105;28;20041;-75
2021/12/11 00:54:06;;;;;;;38.58;9.10;;;4.80;83.30;;;;;;5040602;28;20404;-74
2021/12/11 00:56:41;;;;;;;45.78;9.48;;;4.80;83.30;;;;;;5039320;28;20103;-75
2021/12/11 00:59:12;;;;;;;62.63;8.00;;;4.80;83.20;;;;;;5042543;28;20029;-75
2021/12/11 01:01:59;;;;;;;30.83;7.18;;;4.80;83.20;;;;;;5044806;28;20040;-75
2021/12/11 01:04:28;;;;;;;18.52;5.85;;;4.80;83.20;;;;;;5045092;28;20104;-75
2021/12/11 01:06:58;;;;;;;21.98;6.90;;;4.80;83.20;;;;;;5036978;28;20397;-74
2021/12/11 01:09:26;;;;;;;31.48;6.38;;;4.80;83.30;;;;;;5043302;28;20404;-75
2021/12/11 01:12:00;;;;;;;21.02;7.18;;;4.80;83.40;;;;;;5049370;28;20083;-75
2021/12/11 01:14:39;;;;;;;13.00;7.03;;;4.80;83.50;;;;;;5032637;28;20040;-74
2021/12/11 01:17:12;;;;;;;11.95;7.20;;;4.80;83.60;;;;;;5051366;28;20035;-74
2021/12/11 01:19:41;;;;;;;12.98;7.30;;;4.80;83.50;;;;;;5052374;28;20033;-75
2021/12/11 01:22:20;;;;;;;14.93;8.18;;;4.80;83.50;;;;;;5040495;28;20043;-75
2021/12/11 01:24:47;;;;;;;10.35;6.43;;;4.80;83.50;;;;;;5039937;28;20083;-75
2021/12/11 01:27:16;;;;;;;10.68;5.85;;;4.90;83.60;;;;;;5052829;28;20037;-74
2021/12/11 01:29:44;;;;;;;10.02;5.88;;;4.80;83.60;;;;;;5034977;28;20092;-75
2021/12/11 01:32:11;;;;;;;7.28;3.58;;;4.80;83.80;;;;;;5032750;28;20497;-75
2021/12/11 01:34:37;;;;;;;6.40;3.35;;;4.80;84.10;;;;;;5044985;28;20030;-75
2021/12/11 01:37:04;;;;;;;7.15;4.65;;;4.70;84.30;;;;;;5045241;28;20087;-75
2021/12/11 01:39:34;;;;;;;8.18;5.07;;;4.70;84.50;;;;;;5050122;28;20029;-75
2021/12/11 01:42:06;;;;;;;9.27;5.13;;;4.70;84.60;;;;;;5051929;28;20392;-75
2021/12/11 01:44:37;;;;;;;7.82;4.88;;;4.70;84.60;;;;;;5052771;28;20485;-75
2021/12/11 01:47:09;;;;;;;9.05;4.93;;;4.70;84.60;;;;;;5049729;28;20029;-74
2021/12/11 01:49:36;;;;;;;12.43;5.40;;;4.70;84.60;;;;;;5041721;28;20421;-73
2021/12/11 01:52:32;;;;;;;8.88;5.22;;;4.70;84.60;;;;;;5052627;28;20104;-73
2021/12/11 01:54:58;;;;;;;10.48;5.43;;;4.70;84.70;;;;;;5052369;28;20655;-73
2021/12/11 01:57:29;;;;;;;8.43;5.20;;;4.80;84.60;;;;;;5051921;28;20068;-72
2021/12/11 02:00:09;;;;;;;13.18;5.60;;;4.80;84.60;;;;;;5039202;28;20473;-72
2021/12/11 02:02:44;;;;;;;10.85;5.60;;;4.80;84.70;;;;;;5040527;28;20040;-72
2021/12/11 02:05:11;;;;;;;;;;;4.80;84.70;;;;;;5038078;28;20033;-73
2021/12/11 02:07:44;;;;;;;12.40;6.35;;;4.80;84.70;;;;;;5039492;28;19962;-75
2021/12/11 02:10:20;;;;;;;14.27;6.43;;;4.80;84.50;;;;;;5031932;28;20045;-72
2021/12/11 02:12:47;;;;;;;10.23;6.22;;;4.80;84.60;;;;;;5032529;28;20395;-76
2021/12/11 02:15:21;;;;;;;12.13;6.30;;;4.80;84.70;;;;;;5039902;28;20037;-73
2021/12/11 02:17:56;;;;;;;10.43;5.68;;;4.80;84.80;;;;;;5049174;28;20171;-73
2021/12/11 02:20:31;;;;;;;8.88;4.97;;;4.80;84.90;;;;;;5038696;28;20124;-73
2021/12/11 02:22:58;;;;;;;13.15;6.88;;;4.80;85.00;;;;;;5033969;28;20033;-73
2021/12/11 02:25:31;;;;;;;11.82;5.20;;;4.80;85.00;;;;;;5051493;28;20485;-72
2021/12/11 02:28:08;;;;;;;11.10;6.10;;;4.80;85.00;;;;;;5039547;28;20066;-73
2021/12/11 02:30:43;;;;;;;13.25;6.57;;;4.80;85.10;;;;;;5051827;28;20056;-73
2021/12/11 02:33:24;;;;;;;10.77;5.88;;;4.80;85.10;;;;;;5038806;28;20385;-72
2021/12/11 02:36:22;;;;;;;16.42;6.95;;;4.80;85.20;;;;;;5032235;28;20038;-72
2021/12/11 02:39:13;;;;;;;6.05;3.10;;;4.80;85.30;;;;;;5030616;28;20042;-73
2021/12/11 02:41:56;;;;;;;22.35;6.03;;;4.80;85.40;;;;;;5032014;28;20042;-73
2021/12/11 02:44:30;;;;;;;24.67;8.32;;;4.70;85.60;;;;;;5032127;28;20442;-73
2021/12/11 02:47:08;;;;;;;15.20;6.47;;;4.60;85.90;;;;;;5033347;28;20476;-73
2021/12/11 02:49:49;;;;;;;6.80;4.07;;;4.60;86.10;;;;;;5050032;28;20472;-73
2021/12/11 02:52:47;;;;;;;7.75;4.75;;;4.60;86.30;;;;;;5047781;28;20083;-73
2021/12/11 02:55:36;;;;;;;22.50;12.13;;;4.60;86.70;;;;;;5045712;28;20374;-73
2021/12/11 02:58:24;;;;;;;17.30;8.30;;;4.50;87.00;;;;;;5044023;28;20025;-73
2021/12/11 03:01:20;;;;;;;13.93;7.57;;;4.50;87.10;;;;;;5050463;28;20033;-73
2021/12/11 03:03:52;;;;;;;16.70;7.57;;;4.50;87.10;;;;;;5051764;28;20052;-73
2021/12/11 03:06:21;;;;;;;21.77;10.40;;;4.60;87.00;;;;;;5044039;28;20511;-74
2021/12/11 03:08:49;;;;;;;18.33;8.77;;;4.60;87.10;;;;;;5043415;28;20495;-73
2021/12/11 03:11:18;;;;;;;19.45;9.20;;;4.60;87.30;;;;;;5053691;28;20485;-73
2021/12/11 03:13:50;;;;;;;18.80;8.27;;;4.70;87.50;;;;;;5043512;28;20485;-73
2021/12/11 03:16:21;;;;;;;15.88;7.80;;;4.70;87.40;;;;;;5051814;28;20030;-76
2021/12/11 03:18:47;;;;;;;14.88;8.27;;;4.80;87.30;;;;;;5035430;28;20033;-73
2021/12/11 03:21:14;;;;;;;18.40;9.75;;;4.80;87.20;;;;;;5037845;28;20524;-73
2021/12/11 03:23:41;;;;;;;20.80;10.52;;;4.80;87.40;;;;;;5035168;28;20535;-73
2021/12/11 03:26:06;;;;;;;19.23;8.88;;;4.80;87.40;;;;;;5045237;28;20477;-73
2021/12/11 03:28:32;;;;;;;17.67;8.98;;;4.90;87.60;;;;;;5037826;28;20109;-73
2021/12/11 03:31:03;;;;;;;18.15;9.43;;;4.90;87.50;;;;;;5050595;28;20048;-73
2021/12/11 03:33:36;;;;;;;13.95;6.85;;;5.00;87.50;;;;;;5054701;28;20052;-73
2021/12/11 03:36:03;;;;;;;16.63;8.07;;;5.00;87.30;;;;;;5042322;28;20039;-73
2021/12/11 03:38:30;;;;;;;19.35;8.95;;;5.00;87.20;;;;;;5035075;28;20037;-73
2021/12/11 03:40:56;;;;;;;17.02;6.93;;;5.00;87.10;;;;;;5035940;28;20030;-73
2021/12/11 03:43:25;;;;;;;14.00;6.95;;;4.90;87.10;;;;;;5035161;28;20057;-73
2021/12/11 03:45:54;;;;;;;14.05;6.90;;;4.90;87.00;;;;;;5048569;28;20103;-73
2021/12/11 03:48:35;;;;;;;16.42;7.95;;;4.90;87.10;;;;;;5054142;28;20048;-73
2021/12/11 03:51:04;;;;;;;10.73;4.88;;;4.90;87.00;;;;;;5037580;28;20490;-74
2021/12/11 03:53:30;;;;;;;14.25;6.95;;;4.80;87.00;;;;;;5035073;28;20033;-74
2021/12/11 03:56:00;;;;;;;15.00;7.80;;;4.80;87.10;;;;;;5049575;28;20385;-73
2021/12/11 03:58:27;;;;;;;20.10;10.70;;;4.70;87.20;;;;;;5043002;28;20384;-73
2021/12/11 04:01:19;;;;;;;22.60;10.35;;;4.70;87.30;;;;;;5054459;28;20094;-73
2021/12/11 04:03:47;;;;;;;21.80;9.43;;;4.70;87.40;;;;;;5046460;28;20511;-74
2021/12/11 04:06:15;;;;;;;21.23;9.77;;;4.70;87.40;;;;;;5040870;28;20033;-74
2021/12/11 04:08:43;;;;;;;19.48;9.70;;;4.70;87.30;;;;;;5054063;28;20504;-74
2021/12/11 04:11:31;;;;;;;22.88;9.82;;;4.80;87.30;;;;;;5053456;28;20029;-74
2021/12/11 04:14:00;;;;;;;25.35;10.25;;;4.80;87.20;;;;;;5040600;28;20033;-73
2021/12/11 04:16:27;;;;;;;20.23;10.88;;;4.80;87.00;;;;;;5042685;28;20127;-74
2021/12/11 04:18:54;;;;;;;24.70;11.32;;;4.80;86.90;;;;;;5047559;28;20068;-74
2021/12/11 04:21:20;;;;;;;18.58;9.02;;;4.80;86.80;;;;;;5034385;28;20123;-74
2021/12/11 04:23:46;;;;;;;19.83;9.45;;;4.90;86.80;;;;;;5033374;28;20033;-74
2021/12/11 04:26:21;;;;;;;23.33;9.07;;;4.90;86.70;;;;;;5046989;28;20032;-74
2021/12/11 04:28:47;;;;;;;22.15;9.90;;;4.90;86.70;;;;;;5034497;28;20120;-74
2021/12/11 04:31:18;;;;;;;17.60;8.50;;;4.90;86.70;;;;;;5033522;28;20112;-74
2021/12/11 04:33:46;;;;;;;20.05;9.10;;;4.80;86.70;;;;;;5033439;28;20021;-74
2021/12/11 04:36:19;;;;;;;17.52;8.70;;;4.90;86.70;;;;;;5033611;28;20029;-74
2021/12/11 04:38:46;;;;;;;17.63;8.85;;;4.80;86.70;;;;;;5031367;28;20477;-72
2021/12/11 04:41:18;;;;;;;18.38;9.95;;;4.90;86.70;;;;;;5032497;28;20037;-75
2021/12/11 04:43:46;;;;;;;21.10;9.93;;;4.80;86.70;;;;;;5046869;28;20036;-73
2021/12/11 04:46:13;;;;;;;17.67;7.90;;;4.80;86.80;;;;;;5043982;28;20065;-74
2021/12/11 04:49:04;;;;;;;13.57;7.25;;;4.80;86.70;;;;;;5049647;28;20052;-74
2021/12/11 04:51:41;;;;;;;18.15;8.82;;;4.80;86.70;;;;;;5038116;28;20041;-74
2021/12/11 04:54:39;;;;;;;17.60;7.55;;;4.80;86.70;;;;;;5032089;28;20037;-73
2021/12/11 05:00:08;;;;;;;13.32;6.70;;;4.70;86.70;;;;;;5045430;28;20039;-74
2021/12/11 05:11:01;;;;;;;10.10;4.78;;;4.50;87.40;;;;;;5034085;28;20102;-73
2021/12/11 05:13:28;;;;;;;11.30;5.13;;;4.50;87.60;;;;;;5040094;28;20044;-73
2021/12/11 05:16:00;;;;;;;2.90;2.30;;;4.40;87.80;;;;;;5053152;28;20527;-73
2021/12/11 05:18:30;;;;;;;13.52;6.88;;;4.40;88.00;;;;;;5053352;28;20037;-73
2021/12/11 05:21:00;;;;;;;16.38;7.22;;;4.30;88.20;;;;;;5049282;28;20028;-73
2021/12/11 05:23:28;;;;;;;15.48;5.63;;;4.40;88.30;;;;;;5033952;28;20034;-73
2021/12/11 05:25:54;;;;;;;18.77;8.32;;;4.30;88.40;;;;;;5050358;28;20695;-73
2021/12/11 05:28:21;;;;;;;19.27;8.32;;;4.30;88.40;;;;;;5041311;28;20065;-73
2021/12/11 05:30:51;;;;;;;10.90;5.47;;;4.30;88.50;;;;;;5046177;28;20424;-73
2021/12/11 05:33:18;;;;;;;7.82;4.57;;;4.30;88.50;;;;;;5045518;28;20060;-73
2021/12/11 05:35:45;;;;;;;12.70;4.70;;;4.30;88.60;;;;;;5051810;28;20037;-73
2021/12/11 05:38:14;;;;;;;8.68;5.03;;;4.30;88.60;;;;;;5039544;28;20025;-73
2021/12/11 05:40:44;;;;;;;23.42;9.18;;;4.30;88.70;;;;;;5032954;28;20060;-73
2021/12/11 05:43:10;;;;;;;14.52;6.68;;;4.30;88.80;;;;;;5032672;28;20063;-73
2021/12/11 05:45:36;;;;;;;16.85;8.25;;;4.30;88.80;;;;;;5040379;28;20033;-73
2021/12/11 05:48:02;;;;;;;13.15;6.40;;;4.30;89.00;;;;;;5050804;28;20053;-73
2021/12/11 05:50:42;;;;;;;11.07;5.20;;;4.30;89.00;;;;;;5040731;28;20041;-73
2021/12/11 05:53:09;;;;;;;15.07;7.25;;;4.30;89.10;;;;;;5035742;28;20132;-74
2021/12/11 05:55:36;;;;;;;5.50;3.97;;;4.20;89.10;;;;;;5042069;28;20121;-73
2021/12/11 05:58:10;;;;;;;4.72;2.72;;;4.20;89.20;;;;;;5052596;28;20091;-73
2021/12/11 06:00:40;;;;;;;5.55;3.25;;;4.20;89.30;;;;;;5040046;28;20040;-73
2021/12/11 06:03:07;;;;;;;11.38;4.55;;;4.20;89.40;;;;;;5032852;28;20044;-73
2021/12/11 06:05:33;;;;;;;7.60;4.25;;;4.20;89.40;;;;;;5046300;28;20100;-74
2021/12/11 06:08:00;;;;;;;8.30;3.28;;;4.20;89.50;;;;;;5044780;28;20149;-74
2021/12/11 06:10:27;;;;;;;19.08;6.35;;;4.10;89.60;;;;;;5045603;28;20044;-75
2021/12/11 06:12:56;;;;;;;1.95;1.20;;;4.10;90.10;;;;;;5041067;28;20048;-74
2021/12/11 06:15:22;;;;;;;7.57;3.13;;;4.10;89.70;;;;;;5052145;28;20029;-74
2021/12/11 06:17:48;;;;;;;17.38;6.80;;;4.20;89.80;;;;;;5051640;28;20033;-74
2021/12/11 06:20:19;;;;;;;11.55;5.63;;;4.10;89.90;;;;;;5049551;28;20105;-74
2021/12/11 06:22:45;;;;;;;17.90;9.30;;;4.10;89.90;;;;;;5042115;28;20554;-74
2021/12/11 06:25:18;;;;;;;19.00;8.93;;;4.10;89.90;;;;;;5048188;28;20022;-74
2021/12/11 06:27:44;;;;;;;3.92;2.17;;;4.10;90.00;;;;;;5032368;28;20068;-74
2021/12/11 06:30:12;;;;;;;14.38;6.88;;;4.10;90.00;;;;;;5031461;28;20049;-75
2021/12/11 06:32:38;;;;;;;5.72;3.83;;;4.10;90.00;;;;;;5032348;28;20112;-74
2021/12/11 06:35:36;;;;;;;5.85;3.75;;;4.00;90.00;;;;;;5042357;28;20040;-74
2021/12/11 06:38:04;;;;;;;15.00;5.55;;;4.10;90.10;;;;;;5042957;28;20109;-74
2021/12/11 06:40:30;;;;;;;18.30;8.55;;;4.00;90.00;;;;;;5056355;28;20052;-74
2021/12/11 06:42:57;;;;;;;18.67;8.27;;;4.00;90.10;;;;;;5038417;28;20026;-74
2021/12/11 06:45:25;;;;;;;10.43;6.38;;;4.00;90.10;;;;;;5047862;28;20111;-74
2021/12/11 06:47:52;;;;;;;26.83;11.13;;;4.00;90.20;;;;;;5049858;28;20046;-74
2021/12/11 06:50:18;;;;;;;8.48;3.78;;;4.00;90.10;;;;;;5036256;28;20075;-74
2021/12/11 06:52:45;;;;;;;11.02;5.25;;;4.00;90.10;;;;;;5041722;28;20052;-75
2021/12/11 06:55:11;;;;;;;20.15;9.50;;;4.00;90.10;;;;;;5055832;28;20388;-74
2021/12/11 06:57:37;;;;;;;12.13;5.20;;;4.00;90.10;;;;;;5040976;28;20426;-74
2021/12/11 07:00:07;;;;;;;5.80;3.67;;;4.00;90.10;;;;;;5043482;28;20122;-74
2021/12/11 07:02:33;;;;;;;17.52;7.75;;;4.00;90.10;;;;;;5055910;28;20047;-75
2021/12/11 07:04:59;;;;;;;8.10;4.65;;;4.00;90.10;;;;;;5046656;28;20033;-75
2021/12/11 07:07:33;;;;;;;7.00;4.65;;;4.00;90.10;;;;;;5051503;28;20040;-75
2021/12/11 07:09:59;;;;;;;9.35;5.30;;;4.00;90.10;;;;;;5055576;28;20044;-75
2021/12/11 07:12:26;;;;;;;8.50;4.30;;;4.00;90.20;;;;;;5041680;28;20021;-75
2021/12/11 07:14:52;;;;;;;5.63;3.40;;;3.90;90.20;;;;;;5044404;28;20063;-75
2021/12/11 07:17:20;;;;;;;14.27;7.65;;;3.90;90.20;;;;;;5040638;28;20035;-74
2021/12/11 07:19:47;;;;;;;23.13;9.75;;;3.90;90.20;;;;;;5054824;28;20029;-75
2021/12/11 07:22:14;;;;;;;9.75;5.35;;;3.90;90.20;;;;;;5042155;28;20025;-75
2021/12/11 07:25:07;;;;;;;21.27;10.35;;;3.90;90.20;;;;;;5042248;28;20053;-75
2021/12/11 07:27:35;;;;;;;24.83;9.68;;;3.90;90.20;;;;;;5034873;28;20477;-76
2021/12/11 07:30:01;;;;;;;19.45;9.02;;;3.90;90.20;;;;;;5052759;28;20128;-75
2021/12/11 07:32:27;;;;;;;24.75;7.80;;;3.90;90.10;;;;;;5056530;28;20037;-75
2021/12/11 07:34:53;;;;;;;8.70;4.88;;;3.90;90.10;;;;;;5056433;28;20021;-74
2021/12/11 07:37:18;;;;;;;3.50;2.45;;;4.00;90.10;;;;;;5057380;28;20033;-75
2021/12/11 07:39:44;;;;;;;13.95;6.45;;;3.90;90.10;;;;;;5053192;28;20109;-75
2021/12/11 07:42:13;;;;;;;14.05;6.40;;;3.90;90.10;;;;;;5035919;28;20029;-75
2021/12/11 07:44:42;;;;;;;7.05;4.00;;;3.90;90.10;;;;;;5054987;28;20025;-75
2021/12/11 07:47:10;;;;;;;7.93;3.08;;;3.80;90.10;;;;;;5055464;28;20029;-75
2021/12/11 07:49:36;;;;;;;9.10;5.70;;;3.80;90.10;;;;;;5055077;28;20175;-75
2021/12/11 07:52:04;;;;;;;5.95;3.63;;;3.80;90.10;;;;;;5055633;28;20028;-75
2021/12/11 07:54:29;;;;;;;4.30;3.08;;;3.80;90.20;;;;;;5048522;28;20124;-75
2021/12/11 07:56:55;;;;;;;15.68;7.85;;;3.70;90.20;;;;;;5055197;28;20111;-75
2021/12/11 07:59:21;;;;;;;9.85;4.95;;;3.70;90.20;;;;;;5039568;28;20029;-75
2021/12/11 08:01:51;;;;;;;5.05;3.25;;;3.70;90.20;;;;;;5043592;28;20033;-75
2021/12/11 08:04:17;;;;;;;14.32;6.63;;;3.70;90.30;;;;;;5054444;28;20090;-75
2021/12/11 08:06:43;;;;;;;13.05;5.05;;;3.70;90.30;;;;;;5054775;28;20037;-75
2021/12/11 08:09:14;;;;;;;4.72;3.35;;;3.70;90.30;;;;;;5040693;28;20040;-74
2021/12/11 08:11:41;;;;;;;3.17;2.58;;;3.60;90.30;;;;;;5043301;28;20037;-74
2021/12/11 08:14:08;;;;;;;20.42;7.28;;;3.60;90.30;;;;;;5052819;28;20081;-76
2021/12/11 08:16:45;;;;;;;6.00;4.15;;;3.60;90.30;;;;;;5046328;28;20458;-76
2021/12/11 08:19:16;;;;;;;1.95;1.55;;;3.60;90.30;;;;;;5034084;28;20029;-76
2021/12/11 08:21:46;;;;;;;7.93;4.72;;;3.60;90.30;;;;;;5033848;28;20021;-74
2021/12/11 08:24:12;;;;;;;8.77;5.05;;;3.60;90.30;;;;;;5033223;28;20389;-75
2021/12/11 08:26:40;;;;;;;6.32;3.30;;;3.60;90.30;;;;;;5036492;28;20025;-75
2021/12/11 08:29:07;;;;;;;17.65;8.18;;;3.50;90.30;;;;;;5036329;28;20485;-74
2021/12/11 08:31:33;;;;;;;9.98;5.05;;;3.50;90.30;;;;;;5032852;28;20087;-74
2021/12/11 08:33:59;;;;;;;9.27;5.57;;;3.60;90.40;;;;;;5033664;28;20029;-73
2021/12/11 08:36:25;;;;;;;19.85;9.27;;;3.50;90.30;;;;;;5035583;28;20029;-73
2021/12/11 08:38:51;;;;;;;17.02;6.32;;;3.60;90.40;;;;;;5032844;28;20418;-74
2021/12/11 08:41:22;;;;;;;7.65;4.38;;;3.60;90.40;;;;;;5027192;28;20184;-74
2021/12/11 08:43:56;;;;;;;4.95;3.38;;;3.60;90.40;;;;;;5032882;28;20091;-74
2021/12/11 08:46:27;;;;;;;13.60;6.05;;;3.60;90.30;;;;;;5030960;28;20036;-73
2021/12/11 08:48:56;;;;;;;18.92;9.10;;;3.60;90.30;;;;;;5032209;28;20056;-74
2021/12/11 08:51:44;;;;;;;23.63;9.20;;;3.60;90.30;;;;;;5037110;28;20048;-73
2021/12/11 08:54:12;;;;;;;8.25;5.05;;;3.60;90.30;;;;;;5046124;28;20040;-73
2021/12/11 08:56:40;;;;;;;21.67;9.15;;;3.60;90.30;;;;;;5046593;28;20735;-73
2021/12/11 08:59:11;;;;;;;15.52;5.53;;;3.60;90.30;;;;;;5046974;28;20067;-72
2021/12/11 09:01:47;;;;;;;9.48;5.50;;;3.60;90.30;;;;;;5044180;28;20032;-72
2021/12/11 09:04:25;;;;;;;5.85;2.58;;;3.70;90.30;;;;;;5046617;28;20050;-73
2021/12/11 09:07:06;;;;;;;18.27;9.85;;;3.60;90.30;;;;;;5033349;28;20033;-71
2021/12/11 09:09:45;;;;;;;10.05;5.25;;;3.70;90.30;;;;;;5036652;28;20032;-72
2021/12/11 09:12:24;;;;;;;7.43;3.45;;;3.70;90.20;;;;;;5033590;28;20033;-72
2021/12/11 09:15:05;;;;;;;14.05;4.25;;;3.70;90.20;;;;;;5034490;28;20489;-72
2021/12/11 09:17:39;;;;;;;4.10;3.35;;;3.70;90.20;;;;;;5031823;28;20030;-72
2021/12/11 09:20:11;;;;;;;8.05;4.32;;;3.70;90.20;;;;;;5031699;28;20112;-72
2021/12/11 09:22:52;;;;;;;20.77;9.63;;;3.70;90.20;;;;;;5034035;28;20042;-72
2021/12/11 09:25:23;;;;;;;17.13;8.57;;;3.60;90.20;;;;;;5034658;28;20122;-72
2021/12/11 09:28:11;;;;;;;4.95;3.63;;;3.70;90.30;;;;;;5030879;28;20462;-71
2021/12/11 09:30:49;;;;;;;6.35;4.68;;;3.60;90.30;;;;;;5031566;28;20088;-72
2021/12/11 09:33:20;;;;;;;3.28;2.35;;;3.60;90.30;;;;;;5031191;28;20457;-72
2021/12/11 09:36:03;;;;;;;12.02;4.80;;;3.70;90.30;;;;;;5031554;28;20033;-72
2021/12/11 09:39:05;;;;;;;9.65;5.88;;;3.70;90.40;;;;;;5032041;28;20029;-72
2021/12/11 09:41:32;;;;;;;4.18;1.75;;;3.70;90.30;;;;;;5030502;28;20040;-71
2021/12/11 09:44:10;;;;;;;6.80;4.43;;;3.70;90.30;;;;;;5044523;28;20112;-71
2021/12/11 09:46:41;;;;;;;6.85;4.20;;;3.70;90.30;;;;;;5036593;28;20423;-72
2021/12/11 09:49:11;;;;;;;18.33;5.28;;;3.70;90.40;;;;;;5034445;28;20050;-72
2021/12/11 09:51:42;;;;;;;6.88;4.25;;;3.70;90.30;;;;;;5034106;28;20025;-73
2021/12/11 09:54:14;;;;;;;11.73;6.85;;;3.70;90.30;;;;;;5030438;28;20060;-71
2021/12/11 09:56:46;;;;;;;10.18;4.75;;;3.70;90.30;;;;;;5033590;28;20488;-69
2021/12/11 09:59:15;;;;;;;13.88;6.45;;;3.70;90.40;;;;;;5030467;28;20033;-71
2021/12/11 10:01:44;;;;;;;5.72;3.67;;;3.80;90.40;;;;;;5029493;28;20040;-72
2021/12/11 10:04:17;;;;;;;13.23;5.50;;;3.80;90.40;;;;;;5031912;28;20036;-71
2021/12/11 10:09:21;;;;;;;12.75;4.47;;;3.80;90.40;;;;;;5031115;28;20555;-72
2021/12/11 10:12:08;;;;;;;14.77;4.75;;;3.80;90.40;;;;;;5032508;28;20029;-72
2021/12/11 10:14:44;;;;;;;1.33;1.23;;;3.90;90.40;;;;;;5029242;28;20041;-72
2021/12/11 10:17:15;;;;;;;12.63;4.38;;;3.90;90.40;;;;;;5029522;28;20060;-74
2021/12/11 10:19:43;;;;;;;10.40;4.68;;;3.90;90.40;;;;;;5032859;28;20029;-77
2021/12/11 10:22:17;;;;;;;6.82;4.13;;;3.90;90.50;;;;;;5029118;28;20030;-74
2021/12/11 10:24:43;;;;;;;6.55;4.43;;;3.90;90.50;;;;;;5032786;28;20030;-75
2021/12/11 10:27:11;;;;;;;7.38;4.15;;;4.00;90.60;;;;;;5030979;28;20489;-69
2021/12/11 10:29:40;;;;;;;4.35;2.65;;;4.00;90.60;;;;;;5032637;28;20051;-70
2021/12/11 10:32:11;;;;;;;10.50;5.63;;;3.90;90.60;;;;;;5033366;28;20378;-71
2021/12/11 10:34:38;;;;;;;9.60;5.15;;;3.90;90.70;;;;;;5033736;28;20029;-74
2021/12/11 10:37:09;;;;;;;16.40;6.10;;;4.00;90.80;;;;;;5030413;28;20033;-74
2021/12/11 10:39:36;;;;;;;5.13;3.25;;;4.00;90.90;;;;;;5036759;28;20037;-76
2021/12/11 10:42:03;;;;;;;7.35;4.53;;;4.00;91.00;;;;;;5031629;28;20116;-74
2021/12/11 10:44:33;;;;;;;12.15;5.90;;;4.10;91.00;;;;;;5032449;28;20033;-75
2021/12/11 10:47:04;;;;;;;10.63;5.68;;;4.10;91.00;;;;;;5033851;28;20029;-75
2021/12/11 10:49:31;;;;;;;10.18;5.38;;;4.10;91.10;;;;;;5030621;28;20058;-73
2021/12/11 10:52:03;;;;;;;11.15;4.70;;;4.10;91.10;;;;;;5043743;28;20024;-75
2021/12/11 10:54:29;;;;;;;10.68;5.32;;;4.10;91.20;;;;;;5033095;28;20038;-73
2021/12/11 10:56:55;;;;;;;8.82;4.90;;;4.10;91.20;;;;;;5042146;28;20034;-74
2021/12/11 10:59:33;;;;;;;3.88;2.80;;;4.20;91.30;;;;;;5032212;28;20075;-74
2021/12/11 11:02:21;;;;;;;10.93;5.72;;;4.20;91.40;;;;;;5040014;28;20392;-75
2021/12/11 11:04:54;;;;;;;12.48;4.57;;;4.30;91.40;;;;;;5030745;28;20025;-74
2021/12/11 11:07:21;;;;;;;12.82;6.93;;;4.30;91.50;;;;;;5038648;28;20095;-74
2021/12/11 11:09:49;;;;;;;13.27;5.70;;;4.30;91.50;;;;;;5030429;28;20029;-74
2021/12/11 11:12:19;;;;;;;8.43;4.70;;;4.30;91.60;;;;;;5031139;28;20029;-75
2021/12/11 11:14:46;;;;;;;13.48;6.93;;;4.40;91.70;;;;;;5030165;28;20480;-74
2021/12/11 11:17:15;;;;;;;20.27;6.03;;;4.40;91.70;;;;;;5031318;28;20069;-74
2021/12/11 11:19:46;;;;;;;10.20;5.20;;;4.50;91.80;;;;;;5031259;28;20116;-74
2021/12/11 11:22:16;;;;;;;13.25;6.03;;;4.50;91.80;;;;;;5033693;28;20037;-74
2021/12/11 11:24:55;;;;;;;12.38;5.00;;;4.60;91.80;;;;;;5036965;28;20472;-75
2021/12/11 11:27:21;;;;;;;7.35;4.00;;;4.60;91.90;;;;;;5032947;28;20083;-75
2021/12/11 11:29:48;;;;;;;11.35;5.32;;;4.70;91.90;;;;;;5033895;28;20041;-76
2021/12/11 11:32:21;;;;;;;5.72;4.18;;;4.70;91.90;;;;;;5033535;28;20105;-74
2021/12/11 11:34:47;;;;;;;13.32;5.38;;;4.70;92.00;;;;;;5033425;28;20464;-71
2021/12/11 11:37:20;;;;;;;9.63;5.93;;;4.70;92.00;;;;;;5034812;28;20034;-74
2021/12/11 11:39:47;;;;;;;12.73;7.97;;;4.80;92.00;;;;;;5035735;28;20116;-74
2021/12/11 11:42:19;;;;;;;6.43;4.00;;;4.80;92.10;;;;;;5035499;28;20087;-73
2021/12/11 11:44:47;;;;;;;8.43;4.32;;;4.90;92.20;;;;;;5038011;28;20056;-73
2021/12/11 11:47:19;;;;;;;6.38;3.95;;;4.90;92.30;;;;;;5032206;28;20378;-74
2021/12/11 11:49:45;;;;;;;14.40;7.32;;;4.90;92.30;;;;;;5033121;28;20049;-76
2021/12/11 11:52:16;;;;;;;14.00;6.60;;;5.00;92.40;;;;;;5050468;28;20056;-74
2021/12/11 11:54:44;;;;;;;17.60;7.45;;;5.00;92.50;;;;;;5048972;28;20419;-70
2021/12/11 11:57:37;;;;;;;16.48;6.95;;;5.00;92.50;;;;;;5043326;28;20042;-73
2021/12/11 12:00:13;;;;;;;17.27;7.35;;;5.00;92.60;;;;;;5036558;28;20048;-73
2021/12/11 12:02:40;;;;;;;8.88;5.18;;;5.00;92.70;;;;;;5032500;28;20803;-75
2021/12/11 12:05:06;;;;;;;17.85;6.30;;;5.10;92.80;;;;;;5033724;28;20017;-76
2021/12/11 12:07:33;;;;;;;17.10;7.35;;;5.10;92.80;;;;;;5033943;28;20396;-76
2021/12/11 12:10:05;;;;;;;15.60;6.72;;;5.20;92.90;;;;;;5033357;28;20121;-75
2021/12/11 12:12:31;;;;;;;23.52;9.18;;;5.10;93.00;;;;;;5036547;28;20061;-76
2021/12/11 12:14:57;;;;;;;21.67;10.25;;;5.20;93.10;;;;;;5035513;28;20068;-75
2021/12/11 12:17:26;;;;;;;13.82;6.93;;;5.20;93.10;;;;;;5033209;28;20045;-75
2021/12/11 12:19:53;;;;;;;13.57;7.47;;;5.20;93.20;;;;;;5044736;28;20028;-75
2021/12/11 12:22:21;;;;;;;11.32;5.88;;;5.20;93.30;;;;;;5034026;28;20029;-76
2021/12/11 12:24:49;;;;;;;13.35;6.13;;;5.20;93.60;;;;;;5032969;28;20025;-75
2021/12/11 12:27:18;;;;;;;12.30;6.20;;;5.30;93.40;;;;;;5036137;28;20061;-75
2021/12/11 12:29:46;;;;;;;11.75;5.47;;;5.30;93.40;;;;;;5034740;28;20049;-76
2021/12/11 12:32:19;;;;;;;5.18;3.47;;;5.30;93.40;;;;;;5034442;28;20037;-77
2021/12/11 12:34:46;;;;;;;9.00;5.15;;;5.40;93.50;;;;;;5034337;28;20123;-77
2021/12/11 12:37:12;;;;;;;6.57;2.17;;;5.40;93.50;;;;;;5033263;28;20109;-76
2021/12/11 12:39:43;;;;;;;16.90;7.65;;;5.40;93.50;;;;;;5034015;28;20044;-72
2021/12/11 12:42:25;;;;;;;5.28;3.38;;;5.50;93.50;;;;;;5033012;28;21473;-73
2021/12/11 12:44:58;;;;;;;12.73;6.13;;;5.50;93.50;;;;;;5032196;28;20034;-77
2021/12/11 12:47:28;;;;;;;9.52;5.50;;;5.50;93.50;;;;;;5033979;28;20474;-74
2021/12/11 12:49:56;;;;;;;8.15;4.93;;;5.60;93.50;;;;;;5030291;28;20053;-75
2021/12/11 12:52:35;;;;;;;8.93;5.15;;;5.60;93.50;;;;;;5031902;28;20021;-76
2021/12/11 12:55:07;;;;;;;6.40;4.35;;;5.60;93.40;;;;;;5035021;28;20824;-75
2021/12/11 12:57:37;;;;;;;4.85;3.17;;;5.70;93.40;;;;;;5030631;28;20053;-75
2021/12/11 13:00:25;;;;;;;15.30;6.75;;;5.70;93.40;;;;;;5032018;28;20033;-75
2021/12/11 13:02:57;;;;;;;11.93;5.95;;;5.70;93.40;;;;;;5036377;28;20491;-73
2021/12/11 13:05:36;;;;;;;5.53;3.03;;;5.80;93.40;;;;;;5030876;28;20029;-74
2021/12/11 13:08:16;;;;;;;10.68;5.55;;;5.80;93.40;;;;;;5036308;28;20059;-75
2021/12/11 13:10:47;;;;;;;13.10;6.30;;;5.80;93.40;;;;;;5030767;28;20128;-77
2021/12/11 13:13:15;;;;;;;10.60;5.45;;;5.90;93.40;;;;;;5035244;28;20108;-76
2021/12/11 13:15:48;;;;;;;12.95;4.90;;;5.90;93.80;;;;;;5034704;28;20029;-76
2021/12/11 13:18:18;;;;;;;7.75;3.28;;;5.90;93.50;;;;;;5031415;28;20476;-76
2021/12/11 13:21:02;;;;;;;16.55;6.97;;;5.90;93.50;;;;;;5033206;28;20052;-76
2021/12/11 13:23:29;;;;;;;13.50;5.47;;;5.90;93.50;;;;;;5033681;28;20065;-76
2021/12/11 13:25:59;;;;;;;6.63;3.85;;;6.00;93.50;;;;;;5033229;28;20041;-76